메인 페이지
METAR-TAF:

METAR-TAF

공항 :

North Las Vegas Airport

노스라스베이거스, 네바다, 미국

위도: 36-12-42N, 경도: 115-11-45W, 고도: 672m

현재 날씨관측

예보는 40분 전, 03:53시(UTC)에 발표되었습니다.
북북서15kt
온도 24°C
습도 25%
기압 1007 hPa
시정: 16.1km
고도 12000ft 상공 구름 보통

METAR: KVGT 220353Z AUTO 33015KT 10SM SCT120 24/03 A2973 RMK AO2 SLP064 T02440028

시각: 21:33 (04:33 UTC)

예보

예보는 57분 전, 03:36시(UTC)에 발표되었습니다.
예보 대상 시간: 22일 04시부터 22일 24시까지 (UTC)
북북서12kt
시정: 10km
고도 10000ft 상공 구름 보통
고도 15000ft 상공 구름 많음
22일 0800시부터 (UTC)
여러 방향의 바람 5kt
시정: 10km
고도 10000ft 상공 구름 보통
고도 15000ft 상공 구름 많음
22일 1800시부터 (UTC)
남동11kt
시정: 10km
고도 9000ft 상공 구름 보통
고도 15000ft 상공 구름 보통

TAF: KVGT 220336Z 2204/2224 33012KT P6SM SCT100 BKN150 FM220800 VRB05KT P6SM SCT100 BKN150 FM221800 14011KT P6SM SCT090 SCT150

4,000개 이상의 공항 관측 자료 및 예보 (METAR 및 TAF 보고).

지도상에서 검색 가능한 기상관측소가 노란 점과 빨간 점으로 표시되어 있습니다.

기상관측소 명을 보려면 표시 위로 마우스를 이동하세요.

날씨 관측과 예보를 보려면 클릭하세요.

지도 변경 : 확대하려면 엑스 표시가 있는 녹색 버튼, 축소하려면 빼기 표시가 있는 녹색 버튼, 다음 페이지의 지도를 보려면 녹색 화살표를 클릭하세요.


METAR-TAF: